McCarthy, Alaska
Current Conditions -  °F | °C
As of 3:53 AM on Sunday 23 Nov 2014 (Local Time) from PAGK Reporting Station
Clear Clear  
Wind Chill: -7°   Ceiling: Unl
Heat Index: -7°   Visibility: 10mi
Dew Point: -12°   Wind: 0mph
Humidity: 79%   Direction: NA
Pressure: 29.43"   Gusts: NA
Location:  61.44°N, 142.91°W
Report Text: PAGK 231253Z AUTO 00000KT 10SM CLR M22/M24 A2943 RMK AO2 SLP029 T12171244 TSNO $
Loading
Personal Weather Stations






























Interactive Weather Map New forecast layout! Learn more

10-Day Weather Forecast

Advertisements
Track Severe Weather on mobile